Saint Gallen, Switzerland

3:53 AM CEST on August 26, 2016 (GMT +0200)
Wiesentalstrasse | | Change Station

Elev 2152 ft 47.43 °N, 9.40 °E | Updated 8 seconds ago

Fog
Fog
64.6 °F
Feels Like 64.6 °F
N
0.0
Wind Variable Wind from South
Gusts 0.0 mph

Today
High -- | Low -- °F
--% Chance of Precip.
Yesterday
High -- | Low -- °F
Precip. -- in
Pressure 30.06 in
Visibility -9999.0 miles
Clouds
Dew Point 64 °F
Humidity 96%
Rainfall 0.00 in
Snow Depth Not available.
6:33 AM 8:13 PM
Last Quarter, 40% visible
METAR LSZR 260120Z AUTO VRB02KT 3400 FG NCD 18/17 Q1018
Pressure 30.06 in
Visibility -9999.0 miles
Clouds
Dew Point 64 °F
Humidity 96%
Rainfall 0.00 in
Snow Depth Not available.
6:33 AM 8:13 PM
Last Quarter, 40% visible
METAR LSZR 260120Z AUTO VRB02KT 3400 FG NCD 18/17 Q1018

10-Day Weather Forecast

×

Almanac

Astronomy

Aug. 26, 2016 Rise Set
Actual Time
Civil Twilight
Nautical Twilight
Astronomical Twilight
Moon
Length of Visible Light
Length of Day
Tomorrow will be .
, % of the Moon is Illuminated

Today's Extremes

Country Highs Country Lows

Community

WunderPhotos

Upload Photos

1,935,017 photos uploaded!

WunderBlog® & News

Nearby

Air Quality

  Air Quality AQ Index Pollutant
Not available.

Snow Depth

Station Depth Elevation

Earthquake Activity

City Distance Mag. Time & Date
Minimum magnitude displayed is 2.5.

Coastal Water Temperatures

Place Temperature

Stations

Nearby Weather Stations

Station Location Temp. Windchill Dew Point Humidity Wind Precip. Elev Updated Type